Terminal Aerodrome Forecast
Issued by NWS

Home | Current Version | Previous Version | Graphics & Text | Print | Product List | Glossary On
Versions: 1 2 3 4 5 6 7 8 9 10 11 12 13 14 15 16 17 18 19 20
000
FTUS43 KMPX 201300 AAA
TAFAXN
TAF AMD
KAXN 201327Z 2013/2112 12003KT 4SM BR BKN002
     FM201430 14007KT P6SM SCT250
     FM210000 12010KT P6SM BKN070
     FM210400 14007KT 6SM BR VCSH SCT006 OVC050
      TEMPO 2105/2108 4SM TSRA OVC050CB=

USA.gov is the U.S. government's official web portal to all federal, state and local government web resources and services.